• Join FlightAware (Why Join?)
  • Login
  • US Flag 
01:44AM EST


 

Airport Tracker/Info


-or-


 

Live Flight TrackerFlight Track Log ✈ AWE1454 ✈ 03-May-2013 ✈ KPHL - KMHT

Flight Track Log - Related Links

Times and Time Zones

All times are in EDT time to prevent confusion due to time zone crossing. See the AWE1454 flight status page for this flight to view local times or setup timezone preferences in your user account.

Time Position Orientation Groundspeed Altitude Reporting Facility
EDT Latitude Longitude Course Direction KTS MPH feet Rate Location/Type
04:28PM 39.8833 -75.2167 37° Northeast 148 170 600  Level Philadelphia TRACON
04:28PM 39.8667 -75.1833 123° Southeast 162 186 1,800 1,740 Climbing Philadelphia TRACON
04:29PM 39.8667 -75.1167 90° East 220 253 3,300 2,700 Climbing Philadelphia TRACON
04:30PM 39.8119 -74.8427 105° East  Level FlightAware Approximate
04:31PM 39.7856 -74.7114 105° East  Level FlightAware Approximate
04:31PM 39.8364 -74.9747 105° East 277 319 9,000  Level New York Center
04:32PM 39.8588 -74.6246 37° Northeast  Level FlightAware Approximate
04:32PM 39.8192 -74.8736 102° East 283 326 11,100  Level New York Center
04:33PM 39.9449 -74.5551 37° Northeast  Level FlightAware Approximate
04:33PM 39.8019 -74.7672 102° East 304 350 13,000  Level New York Center
04:34PM 39.8408 -74.6639 64° Northeast 310 357 15,700 2,700 Climbing New York Center
04:35PM 39.9331 -74.5825 34° Northeast 322 371 18,400 2,220 Climbing New York Center
04:36PM 40.0042 -74.5158 36° Northeast 322 371 20,200 2,760 Climbing New York Center
04:37PM 40.0881 -74.4281 39° Northeast 347 399 24,000 2,820 Climbing New York Center
04:38PM 40.1614 -74.3533 38° Northeast 341 392 25,800 1,740 Climbing New York Center
04:39PM 40.2386 -74.2758 37° Northeast 336 387 27,500 1,560 Climbing New York Center
04:40PM 40.3239 -74.2092 31° Northeast 336 387 29,000 720 Climbing New York Center
04:41PM 40.4094 -74.1372 33° Northeast 346 398 29,000  Level New York Center
04:42PM 40.4947 -74.0733 30° Northeast 352 405 29,000  Level New York Center
04:43PM 40.5778 -74.0089 31° Northeast 352 405 29,000  Level New York Center
04:45PM 40.7236 -73.8997 30° Northeast 353 406 29,000  Level Boston Center
04:46PM 40.8058 -73.8358 30° Northeast 347 399 29,000  Level Boston Center
04:47PM 40.8961 -73.7856 23° Northeast 341 392 29,000  Level Boston Center
04:48PM 40.9939 -73.7931 357° North 336 387 29,000  Level Boston Center
04:49PM 41.0917 -73.7978 358° North 341 392 29,000  Level Boston Center
04:50PM 41.1875 -73.8028 358° North 341 392 29,000  Level Boston Center
04:51PM 41.2875 -73.8075 358° North 346 398 29,000  Level Boston Center
04:52PM 41.3833 -73.8122 358° North 346 398 29,000  Level Boston Center
04:53PM 41.4833 -73.8144 359° North 346 398 29,000  Level Boston Center
04:54PM 41.5792 -73.8194 358° North 346 398 29,000  Level Boston Center
04:55PM 41.6772 -73.8242 358° North 346 398 29,000  Level Boston Center
04:56PM 41.7750 -73.8208 North 346 398 29,000  Level Boston Center
04:57PM 41.8792 -73.8231 359° North 337 388 29,000  Level Boston Center
04:58PM 41.9772 -73.8225 360° North 337 388 29,000  Level Boston Center
04:59PM 42.0753 -73.8189 North 347 399 29,000 -540 Level Boston Center
05:00PM 42.1817 -73.8158 North 358 412 28,000 -1,080 Descending Boston Center
05:01PM 42.2842 -73.7842 13° North 371 427 26,900 -1,140 Descending Boston Center
05:02PM 42.3458 -73.6675 54° Northeast 352 405 25,800 -1,140 Descending Boston Center
05:03PM 42.3889 -73.5336 66° East 360 414 24,700 -1,140 Descending Boston Center
05:04PM 42.4317 -73.4078 65° Northeast 360 414 23,600 -1,080 Descending Boston Center
05:05PM 42.4722 -73.2844 66° East 383 441 22,600 -1,080 Descending Boston Center
05:06PM 42.5128 -73.1583 66° East 378 435 21,500 -1,140 Descending Boston Center
05:07PM 42.5508 -73.0461 65° Northeast 362 417 20,400 -1,140 Descending Boston Center
05:08PM 42.5911 -72.9111 68° East 356 410 19,300 -1,260 Descending Boston Center
05:09PM 42.6333 -72.7986 63° Northeast 345 397 17,900 -1,260 Descending Boston Center
05:10PM 42.6711 -72.6800 67° East 338 389 16,800 -1,200 Descending Boston Center
05:11PM 42.7067 -72.5672 67° East 338 389 15,600 -1,260 Descending Boston Center
05:12PM 42.7442 -72.4514 66° East 338 389 14,300 -1,260 Descending Boston Center
05:13PM 42.7797 -72.3383 67° East 338 389 13,100 -1,260 Descending Boston Center
05:14PM 42.8025 -72.2081 77° East 326 375 11,800 -1,200 Descending Boston Center
05:15PM 42.8083 -72.1033 86° East 312 359 10,700 -1,200 Descending Boston Center
05:16PM 42.8308 -71.9758 76° East 312 359 9,400 -900 Descending Boston Center
05:17PM 42.8556 -71.9047 65° Northeast 301 346 9,000 -240 Descending Boston Center
05:18PM 42.9281 -71.7936 48° Northeast 295 339 9,000 -600 Level Boston Center
05:19PM 43.0003 -71.7078 41° Northeast 289 333 7,700 -1,560 Descending Boston Center
05:20PM 43.0564 -71.6614 31° Northeast 267 307 5,900 -1,440 Descending Boston Center
05:21PM 43.0764 -71.5731 73° East 213 245 4,900 -1,380 Descending Boston Center
05:22PM 43.0614 -71.5164 110° East 176 203 3,200 -1,740 Descending Boston Center